Terminal Aerodrome Forecast
Issued by NWS

Home | Current Version | Previous Version | Graphics & Text | Print | Product List | Glossary On
Versions: 1 2 3 4 5 6 7 8 9 10 11 12 13
000
FTUS43 KGRB 191135
TAFMTW
TAF
KMTW 191135Z 1912/2012 20007KT P6SM BKN250
     FM191600 22010G16KT P6SM BKN200 WS018/25035KT
     FM192300 21011KT P6SM BKN250 WS018/27040KT=

USA.gov is the U.S. government's official web portal to all federal, state and local government web resources and services.